Chicago, IL (60601)

3:04 AM CST on February 28, 2017 (GMT -0600)
New East Side | | Change Station

Elev 0 ft 41.89 °N, 87.62 °W | Updated 8 minutes ago

Overcast
Overcast
45.1 °F
Feels Like 45 °F
N
2.5
Wind Variable Wind from SW
Gusts 5.6 mph

Today
High -- | Low -- °F
--% Chance of Precip.
Yesterday
High -- | Low -- °F
Precip. -- in
Pressure 29.90 in
Visibility 8.0 miles
Clouds Mostly Cloudy 1400 ft
Mostly Cloudy 7500 ft
Overcast 12000 ft
Windchill 45 °F
Dew Point 40 °F
Humidity 83%
Rainfall Not available.
Snow Depth Not available.
6:26 AM 5:39 PM
Waxing Crescent, 4% visible
SPECI KMDW 280900Z 17009KT 8SM BKN014 BKN075 OVC120 09/06 A2990 RMK AO2 DZE00 P0000 T00890056
Pressure 29.90 in
Visibility 8.0 miles
Clouds Mostly Cloudy 1400 ft
Mostly Cloudy 7500 ft
Overcast 12000 ft
Windchill 45 °F
Dew Point 40 °F
Humidity 83%
Rainfall Not available.
Snow Depth Not available.
6:26 AM 5:39 PM
Waxing Crescent, 4% visible
SPECI KMDW 280900Z 17009KT 8SM BKN014 BKN075 OVC120 09/06 A2990 RMK AO2 DZE00 P0000 T00890056

Get Your Daily Forecast Email!

Thanks for signing up!

Be on the lookout for a verification email in your inbox.

You'll start receiving the daily forecast at 8 AM.

×

10-Day Weather Forecast

Almanac

Astronomy

Feb. 28, 2017 Rise Set
Actual Time
Civil Twilight
Nautical Twilight
Astronomical Twilight
Moon
Length of Visible Light
Length of Day
Tomorrow will be .
, % of the Moon is Illuminated

Today's Extremes

State Highs State Lows

Community

WunderPhotos

Upload Photos

1,962,540 photos uploaded!

WunderBlog® & News

Nearby

Air Quality

  Air Quality AQ Index Pollutant
Not available.

Snow Depth

Station Depth Elevation

Earthquake Activity

City Distance Mag. Time & Date
Minimum magnitude displayed is 2.5.

Coastal Water Temperatures

Place Temperature

Stations

Nearby Weather Stations

Station Location Temp. Windchill Dew Point Humidity Wind Precip. Elev Updated Type
                   

Watches & Warnings

There are currently no watches in effect.